Richmond (North Yorkshire), United Kingdom
Current Conditions -  °F | °C
As of 4:21 PM on Wednesday 28 Jan 2015 (Local Time) from EGXE Reporting Station
Snow Showers Snow Showers  
Wind Chill: -3°   Ceiling: 1000
Heat Index:   Visibility: 1.2mi
Dew Point: -1°   Wind: 16mph
Humidity: 81%   Direction: 270°W
Pressure: 29.32"   Gusts: NA
Location:  54.41°N, 1.74°W
Report Text: EGXE 281621Z 27014KT 2000 SHSN SCT006 BKN010CB 02/M01 Q0993 YLO2 TEMPO 27025G35KT 1000 SCT002 AMB
Loading
Personal Weather Stations






























Interactive Weather Map New forecast layout! Learn more

10-Day Weather Forecast

Advertisements
Track Severe Weather on mobile